Time;durP1;ratioP1;P1;durP2;ratioP2;P2;SDS_P1;SDS_P2;PMS_P1;PMS_P2;Temp;Humidity;BMP_temperature;BMP_pressure;BME280_temperature;BME280_humidity;BME280_pressure;Samples;Min_cycle;Max_cycle;Signal;HPM_P1;HPM_P2
2022/01/19 00:43:44;;;;;;;;;;;3.70;1.00;;;;;;4820588;29;20222;-87
2022/01/19 00:46:11;;;;;;;;;;;3.80;1.00;;;;;;4874234;29;20689;-86
2022/01/19 00:48:40;;;;;;;;;;;3.80;1.00;;;;;;4954668;28;20621;-86
2022/01/19 00:51:07;;;;;;;;;;;3.80;1.00;;;;;;5041478;28;20274;-86
2022/01/19 00:53:33;;;;;;;;;;;3.80;1.00;;;;;;5061463;28;20233;-86
2022/01/19 00:56:00;;;;;;;;;;;3.90;1.00;;;;;;5093799;28;20667;-86
2022/01/19 00:58:27;;;;;;;;;;;3.90;1.00;;;;;;5093769;28;20246;-86
2022/01/19 01:00:56;;;;;;;;;;;3.90;1.00;;;;;;5093631;28;20021;-85
2022/01/19 01:03:22;;;;;;;;;;;4.00;1.00;;;;;;5093298;28;20053;-86
2022/01/19 01:05:49;;;;;;;;;;;4.00;1.00;;;;;;5093509;28;20125;-85
2022/01/19 01:08:16;;;;;;;;;;;4.00;1.00;;;;;;5093483;28;20084;-86
2022/01/19 01:10:43;;;;;;;;;;;4.00;1.00;;;;;;5093134;28;20011;-86
2022/01/19 01:13:22;;;;;;;;;;;4.10;1.00;;;;;;5093133;28;20402;-86
2022/01/19 01:16:01;;;;;;;;;;;4.10;1.00;;;;;;5093457;28;20091;-86
2022/01/19 01:18:30;;;;;;;;;;;4.10;1.00;;;;;;5093696;28;20153;-86
2022/01/19 01:20:58;;;;;;;;;;;4.10;1.00;;;;;;5092674;28;20001;-85
2022/01/19 01:23:25;;;;;;;;;;;4.10;1.00;;;;;;5093090;28;20007;-86
2022/01/19 01:25:52;;;;;;;;;;;4.10;1.00;;;;;;5093012;28;20439;-86
2022/01/19 01:28:19;;;;;;;;;;;4.10;1.00;;;;;;5093016;28;20445;-86
2022/01/19 01:30:46;;;;;;;;;;;4.10;1.00;;;;;;5093164;28;20381;-86
2022/01/19 01:33:13;;;;;;;;;;;4.20;1.00;;;;;;5092997;28;20485;-86
2022/01/19 01:35:42;;;;;;;;;;;4.20;1.00;;;;;;5093171;28;20037;-86
2022/01/19 01:38:08;;;;;;;;;;;4.10;1.00;;;;;;5092707;28;20423;-87
2022/01/19 01:40:36;;;;;;;;;;;4.20;1.00;;;;;;5092802;28;20031;-86
2022/01/19 01:43:04;;;;;;;;;;;4.20;1.00;;;;;;5093110;28;20125;-85
2022/01/19 01:45:34;;;;;;;;;;;4.20;1.00;;;;;;5092959;28;20336;-86
2022/01/19 01:48:08;;;;;;;;;;;4.20;1.00;;;;;;5093524;28;19975;-86
2022/01/19 01:53:28;;;;;;;;;;;4.20;1.00;;;;;;5092744;28;19981;-86
2022/01/19 01:55:55;;;;;;;;;;;4.20;1.00;;;;;;5092694;28;19977;-86
2022/01/19 01:58:22;;;;;;;;;;;4.20;1.00;;;;;;5092193;28;20030;-86
2022/01/19 02:00:49;;;;;;;;;;;4.20;1.00;;;;;;5095867;28;19983;-86
2022/01/19 02:03:16;;;;;;;;;;;4.20;1.00;;;;;;5097044;28;20439;-86
2022/01/19 02:05:57;;;;;;;;;;;4.20;1.00;;;;;;5096632;28;20451;-86
2022/01/19 02:08:25;;;;;;;;;;;4.20;1.00;;;;;;5096618;28;19985;-86
2022/01/19 02:11:06;;;;;;;;;;;4.20;1.00;;;;;;5096480;28;19984;-86
2022/01/19 02:16:25;;;;;;;;;;;4.20;1.00;;;;;;5096718;28;20066;-86
2022/01/19 02:21:45;;;;;;;;;;;4.20;1.00;;;;;;5096529;28;20350;-86
2022/01/19 02:24:17;;;;;;;;;;;4.20;1.00;;;;;;5096827;28;20039;-87
2022/01/19 02:27:02;;;;;;;;;;;4.20;1.00;;;;;;5096582;28;20354;-85
2022/01/19 02:30:12;;;;;;;;;;;4.10;1.00;;;;;;5096714;28;20062;-87
2022/01/19 02:40:51;;;;;;;;;;;4.10;1.00;;;;;;5076027;28;19995;-85
2022/01/19 02:43:23;;;;;;;;;;;4.10;1.00;;;;;;5076041;28;19984;-85
2022/01/19 02:51:18;;;;;;;;;;;4.10;1.00;;;;;;5096491;28;20327;-86
2022/01/19 02:53:46;;;;;;;;;;;4.10;1.00;;;;;;5096253;28;19973;-86
2022/01/19 02:56:19;;;;;;;;;;;4.10;1.00;;;;;;5095446;28;20488;-86
2022/01/19 02:58:47;;;;;;;;;;;4.10;1.00;;;;;;5096068;28;20354;-86
2022/01/19 03:09:28;;;;;;;;;;;4.10;1.00;;;;;;5095581;28;20018;-86
2022/01/19 03:11:55;;;;;;;;;;;4.10;1.00;;;;;;5094881;28;20043;-85
2022/01/19 03:14:22;;;;;;;;;;;4.10;1.00;;;;;;5095849;28;20329;-86
2022/01/19 03:16:49;;;;;;;;;;;4.10;1.00;;;;;;5095534;28;19967;-86
2022/01/19 03:19:16;;;;;;;;;;;4.10;1.00;;;;;;5095634;28;19988;-86
2022/01/19 03:21:43;;;;;;;;;;;4.10;1.00;;;;;;5095546;28;19976;-86
2022/01/19 03:24:11;;;;;;;;;;;4.10;1.00;;;;;;5095573;28;20035;-87
2022/01/19 03:26:39;;;;;;;;;;;4.10;1.00;;;;;;5095157;28;20053;-87
2022/01/19 03:29:06;;;;;;;;;;;4.10;1.00;;;;;;5095857;28;19964;-86
2022/01/19 03:31:33;;;;;;;;;;;4.10;1.00;;;;;;5095512;28;19967;-86
2022/01/19 03:34:00;;;;;;;;;;;4.10;1.00;;;;;;5095663;28;20048;-85
2022/01/19 03:36:27;;;;;;;;;;;4.10;1.00;;;;;;5095131;28;19967;-86
2022/01/19 03:38:54;;;;;;;;;;;4.00;1.00;;;;;;5095192;28;19970;-86
2022/01/19 03:41:21;;;;;;;;;;;4.00;1.00;;;;;;5095233;28;20035;-85
2022/01/19 03:43:49;;;;;;;;;;;4.00;1.00;;;;;;5094858;28;19982;-86
2022/01/19 03:46:16;;;;;;;;;;;4.00;1.00;;;;;;5094985;28;19970;-84
2022/01/19 03:48:51;;;;;;;;;;;4.10;1.00;;;;;;5095156;28;20062;-86
2022/01/19 03:51:18;;;;;;;;;;;4.00;1.00;;;;;;5095024;28;20494;-86
2022/01/19 03:53:44;;;;;;;;;;;4.00;1.00;;;;;;5094756;28;19976;-86
2022/01/19 03:56:11;;;;;;;;;;;4.00;1.00;;;;;;5094962;28;20380;-86
2022/01/19 03:58:38;;;;;;;;;;;4.00;1.00;;;;;;5095138;28;20017;-86
2022/01/19 04:01:07;;;;;;;;;;;4.00;1.00;;;;;;5094906;28;19979;-86
2022/01/19 04:03:56;;;;;;;;;;;4.00;1.00;;;;;;5094852;28;19974;-86
2022/01/19 04:06:26;;;;;;;;;;;4.00;1.00;;;;;;5094855;28;19999;-89
2022/01/19 04:08:52;;;;;;;;;;;4.00;1.00;;;;;;5094779;28;19975;-86
2022/01/19 04:11:21;;;;;;;;;;;4.00;1.00;;;;;;5094782;28;20000;-85
2022/01/19 04:16:42;;;;;;;;;;;3.90;1.00;;;;;;5094404;28;19997;-86
2022/01/19 04:19:21;;;;;;;;;;;3.90;1.00;;;;;;5094698;28;20022;-86
2022/01/19 04:21:48;;;;;;;;;;;3.90;1.00;;;;;;5094065;28;20023;-86
2022/01/19 04:24:15;;;;;;;;;;;3.90;1.00;;;;;;5094349;28;20093;-86
2022/01/19 04:26:42;;;;;;;;;;;3.90;1.00;;;;;;5094645;28;20231;-86
2022/01/19 04:29:08;;;;;;;;;;;3.80;1.00;;;;;;5094483;28;20087;-86
2022/01/19 04:31:35;;;;;;;;;;;3.80;1.00;;;;;;5094213;28;20049;-86
2022/01/19 04:34:05;;;;;;;;;;;3.80;1.00;;;;;;5093981;28;20025;-86
2022/01/19 04:36:46;;;;;;;;;;;3.90;1.00;;;;;;5094109;28;20075;-88
2022/01/19 04:39:27;;;;;;;;;;;3.80;1.00;;;;;;5094367;28;20126;-88
2022/01/19 04:44:56;;;;;;;;;;;3.80;1.00;;;;;;5093919;28;20482;-88
2022/01/19 05:03:55;;;;;;;;;;;3.80;1.00;;;;;;5093200;28;20147;-88
2022/01/19 05:06:24;;;;;;;;;;;3.70;1.00;;;;;;5093136;28;20115;-88
2022/01/19 05:09:06;;;;;;;;;;;3.80;1.00;;;;;;5093158;28;20330;-88
2022/01/19 05:14:17;;;;;;;;;;;3.70;1.00;;;;;;5093001;28;20760;-88
2022/01/19 05:16:44;;;;;;;;;;;3.70;1.00;;;;;;5093579;28;20029;-88
2022/01/19 05:19:11;;;;;;;;;;;3.70;1.00;;;;;;5093083;28;20004;-88
2022/01/19 05:21:39;;;;;;;;;;;3.70;1.00;;;;;;5093035;28;20483;-87
2022/01/19 05:24:07;;;;;;;;;;;3.70;1.00;;;;;;5093100;28;20256;-87
2022/01/19 05:26:35;;;;;;;;;;;3.70;1.00;;;;;;5093316;28;20049;-89
2022/01/19 05:29:02;;;;;;;;;;;3.70;1.00;;;;;;5093036;28;19997;-88
2022/01/19 05:31:29;;;;;;;;;;;3.70;1.00;;;;;;5092917;28;20538;-87
2022/01/19 05:33:56;;;;;;;;;;;3.70;1.00;;;;;;5092534;28;20060;-86
2022/01/19 05:39:05;;;;;;;;;;;3.70;1.00;;;;;;5085769;28;20491;-88
2022/01/19 05:41:32;;;;;;;;;;;3.70;1.00;;;;;;5092526;28;20266;-88
2022/01/19 05:43:59;;;;;;;;;;;3.70;1.00;;;;;;5092830;28;25066;-88
2022/01/19 05:46:26;;;;;;;;;;;3.70;1.00;;;;;;5093153;28;20378;-88
2022/01/19 05:48:53;;;;;;;;;;;3.70;1.00;;;;;;5092804;28;20626;-88
2022/01/19 05:51:19;;;;;;;;;;;3.70;1.00;;;;;;5092689;28;20615;-88
2022/01/19 05:53:47;;;;;;;;;;;3.70;1.00;;;;;;5093348;28;20607;-88
2022/01/19 05:56:15;;;;;;;;;;;3.70;1.00;;;;;;5093442;28;20046;-88
2022/01/19 05:58:41;;;;;;;;;;;3.70;1.00;;;;;;5092472;28;20022;-88
2022/01/19 06:01:08;;;;;;;;;;;3.70;1.00;;;;;;5092136;28;20118;-88
2022/01/19 06:03:35;;;;;;;;;;;3.70;1.00;;;;;;5092943;28;20179;-88
2022/01/19 06:06:02;;;;;;;;;;;3.70;1.00;;;;;;5093067;28;20138;-88
2022/01/19 06:08:41;;;;;;;;;;;3.70;1.00;;;;;;5092929;28;20048;-88
2022/01/19 06:11:08;;;;;;;;;;;3.70;1.00;;;;;;5092688;28;20182;-88
2022/01/19 06:13:36;;;;;;;;;;;3.60;1.00;;;;;;5092186;28;20138;-86
2022/01/19 06:16:03;;;;;;;;;;;3.60;1.00;;;;;;5092428;28;20925;-86
2022/01/19 06:18:30;;;;;;;;;;;3.60;1.00;;;;;;5092907;28;20592;-87
2022/01/19 06:20:57;;;;;;;;;;;3.60;1.00;;;;;;5093409;28;20087;-89
2022/01/19 06:23:24;;;;;;;;;;;3.70;1.00;;;;;;5095013;28;20051;-88
2022/01/19 06:25:51;;;;;;;;;;;3.60;1.00;;;;;;5095120;28;20081;-89
2022/01/19 06:28:18;;;;;;;;;;;3.60;1.00;;;;;;5095612;28;20121;-88
2022/01/19 06:30:46;;;;;;;;;;;3.60;1.00;;;;;;5093674;28;20359;-89
2022/01/19 06:33:13;;;;;;;;;;;3.60;1.00;;;;;;5094436;28;20082;-89
2022/01/19 06:35:39;;;;;;;;;;;3.50;1.00;;;;;;5093681;28;20084;-88
2022/01/19 06:38:06;;;;;;;;;;;3.50;1.00;;;;;;5092932;28;20685;-89
2022/01/19 06:40:33;;;;;;;;;;;3.50;1.00;;;;;;5095403;28;20248;-88
2022/01/19 06:43:00;;;;;;;;;;;3.50;1.00;;;;;;5094623;28;20568;-88
2022/01/19 06:45:27;;;;;;;;;;;3.50;1.00;;;;;;5093649;28;21332;-92
2022/01/19 06:47:55;;;;;;;;;;;3.50;1.00;;;;;;5097925;28;20740;-88
2022/01/19 06:50:23;;;;;;;;;;;3.50;1.00;;;;;;5098618;28;20226;-88
2022/01/19 06:52:50;;;;;;;;;;;3.40;1.00;;;;;;5098447;28;20667;-87
2022/01/19 06:55:17;;;;;;;;;;;3.40;1.00;;;;;;5097847;28;20668;-88
2022/01/19 06:57:45;;;;;;;;;;;3.40;1.00;;;;;;5097859;28;20732;-89
2022/01/19 07:00:45;;;;;;;;;;;3.40;1.00;;;;;;5097110;28;20706;-90
2022/01/19 07:03:13;;;;;;;;;;;3.40;1.00;;;;;;5099939;28;20665;-89
2022/01/19 07:05:41;;;;;;;;;;;3.40;1.00;;;;;;5097584;28;20619;-89
2022/01/19 07:08:07;;;;;;;;;;;3.40;1.00;;;;;;5097368;28;25073;-89
2022/01/19 07:10:34;;;;;;;;;;;3.40;1.00;;;;;;5099287;28;20611;-89
2022/01/19 07:13:02;;;;;;;;;;;3.40;1.00;;;;;;5096928;28;20656;-91
2022/01/19 07:15:28;;;;;;;;;;;3.40;1.00;;;;;;5096307;28;20726;-92
2022/01/19 07:17:55;;;;;;;;;;;3.40;1.00;;;;;;5097821;28;20111;-89
2022/01/19 07:20:24;;;;;;;;;;;3.50;1.00;;;;;;5098312;28;20616;-89
2022/01/19 07:22:51;;;;;;;;;;;3.50;1.00;;;;;;5097670;28;20782;-89
2022/01/19 07:25:18;;;;;;;;;;;3.50;1.00;;;;;;5097576;28;20560;-89
2022/01/19 07:27:53;;;;;;;;;;;3.40;1.00;;;;;;5097649;28;25082;-87
2022/01/19 07:30:23;;;;;;;;;;;3.50;1.00;;;;;;5106622;28;20655;-89
2022/01/19 07:32:56;;;;;;;;;;;3.50;1.00;;;;;;5102792;28;20598;-89
2022/01/19 07:35:25;;;;;;;;;;;3.50;1.00;;;;;;5105157;28;20157;-91
2022/01/19 07:37:57;;;;;;;;;;;3.50;1.00;;;;;;5109621;28;20505;-92
2022/01/19 07:40:24;;;;;;;;;;;3.50;1.00;;;;;;5085772;28;20293;-88
2022/01/19 07:42:54;;;;;;;;;;;3.50;1.00;;;;;;5087997;28;25072;-89
2022/01/19 07:45:27;;;;;;;;;;;3.50;1.00;;;;;;5100965;28;20752;-88
2022/01/19 07:47:57;;;;;;;;;;;3.60;1.00;;;;;;5105205;28;20717;-89
2022/01/19 07:50:25;;;;;;;;;;;3.60;1.00;;;;;;5106339;28;20680;-88
2022/01/19 07:52:53;;;;;;;;;;;3.60;1.00;;;;;;5106399;28;21212;-89
2022/01/19 07:55:31;;;;;;;;;;;3.60;1.00;;;;;;5106398;28;20747;-92
2022/01/19 07:58:01;;;;;;;;;;;3.60;1.00;;;;;;5105642;28;20694;-89
2022/01/19 08:00:58;;;;;;;;;;;3.70;1.00;;;;;;5105798;28;20483;-90
2022/01/19 08:03:34;;;;;;;;;;;3.70;1.00;;;;;;5107134;28;20688;-91
2022/01/19 08:06:08;;;;;;;;;;;3.70;1.00;;;;;;5103878;28;20688;-88
2022/01/19 08:08:35;;;;;;;;;;;3.80;1.00;;;;;;5102752;28;20614;-90
2022/01/19 08:11:02;;;;;;;;;;;3.80;1.00;;;;;;5104857;28;20446;-90
2022/01/19 08:13:29;;;;;;;;;;;3.80;1.00;;;;;;5096083;28;20631;-92
2022/01/19 08:15:56;;;;;;;;;;;3.80;1.00;;;;;;5101575;28;21029;-91
2022/01/19 08:18:23;;;;;;;;;;;3.80;1.00;;;;;;5100826;28;20654;-89
2022/01/19 08:20:50;;;;;;;;;;;3.80;1.00;;;;;;5106594;28;20136;-89
2022/01/19 08:23:26;;;;;;;;;;;3.90;1.00;;;;;;5105000;28;19986;-91
2022/01/19 08:25:57;;;;;;;;;;;3.90;1.00;;;;;;5107311;28;20044;-93
2022/01/19 08:28:39;;;;;;;;;;;3.90;1.00;;;;;;5097364;28;20004;-92
2022/01/19 08:31:05;;;;;;;;;;;3.90;1.00;;;;;;5101828;28;19992;-89
2022/01/19 08:33:39;;;;;;;;;;;3.90;1.00;;;;;;5102602;28;20023;-91
2022/01/19 08:36:06;;;;;;;;;;;4.00;1.00;;;;;;5105937;28;20081;-90
2022/01/19 08:38:40;;;;;;;;;;;4.00;1.00;;;;;;5102579;28;20522;-90
2022/01/19 08:41:07;;;;;;;;;;;4.00;1.00;;;;;;5103862;28;20021;-92
2022/01/19 08:43:40;;;;;;;;;;;4.00;1.00;;;;;;5103462;28;19988;-90
2022/01/19 08:46:07;;;;;;;;;;;4.00;1.00;;;;;;5102252;28;20051;-92
2022/01/19 08:48:34;;;;;;;;;;;4.00;1.00;;;;;;5102768;28;20012;-89
2022/01/19 08:51:01;;;;;;;;;;;4.10;1.00;;;;;;5103635;28;19993;-88
2022/01/19 08:53:29;;;;;;;;;;;4.10;1.00;;;;;;5103878;28;19974;-92
2022/01/19 08:56:03;;;;;;;;;;;4.10;1.00;;;;;;5103559;28;19944;-90
2022/01/19 08:58:32;;;;;;;;;;;4.10;1.00;;;;;;5102965;28;19949;-90
2022/01/19 09:01:12;;;;;;;;;;;4.20;1.00;;;;;;5103122;28;19961;-90
2022/01/19 09:03:39;;;;;;;;;;;4.10;1.00;;;;;;5083278;28;20055;-91
2022/01/19 09:06:15;;;;;;;;;;;4.20;1.00;;;;;;5088135;28;20073;-90
2022/01/19 09:08:42;;;;;;;;;;;4.20;1.00;;;;;;5100178;28;19959;-89
2022/01/19 09:11:19;;;;;;;;;;;4.30;1.00;;;;;;5101519;28;19966;-92
2022/01/19 09:13:49;;;;;;;;;;;4.30;1.00;;;;;;5101477;28;20009;-89
2022/01/19 09:16:23;;;;;;;;;;;4.40;1.00;;;;;;5101012;28;19947;-90
2022/01/19 09:18:50;;;;;;;;;;;4.40;1.00;;;;;;5100513;28;19965;-90
2022/01/19 09:21:17;;;;;;;;;;;4.40;1.00;;;;;;5101995;28;19963;-89
2022/01/19 09:23:44;;;;;;;;;;;4.50;1.00;;;;;;5101112;28;19977;-92
2022/01/19 09:26:11;;;;;;;;;;;4.60;1.00;;;;;;5101536;28;20019;-92
2022/01/19 09:28:40;;;;;;;;;;;4.70;1.00;;;;;;5103381;28;20019;-91
2022/01/19 09:31:13;;;;;;;;;;;4.70;1.00;;;;;;5103540;28;19972;-92
2022/01/19 09:33:55;;;;;;;;;;;4.80;1.00;;;;;;5105334;28;20034;-91
2022/01/19 09:39:21;;;;;;;;;;;4.90;1.00;;;;;;5081683;28;19969;-91
2022/01/19 09:41:49;;;;;;;;;;;4.90;1.00;;;;;;5085571;28;20413;-90
2022/01/19 09:44:23;;;;;;;;;;;4.90;1.00;;;;;;5085992;28;20001;-92
2022/01/19 09:46:54;;;;;;;;;;;5.00;1.00;;;;;;5102512;28;19966;-92
2022/01/19 09:49:28;;;;;;;;;;;5.00;1.00;;;;;;5105098;28;19967;-88
2022/01/19 09:51:59;;;;;;;;;;;5.00;1.00;;;;;;5096255;28;19959;-91
2022/01/19 09:54:31;;;;;;;;;;;5.10;1.00;;;;;;5095434;28;19962;-92
2022/01/19 09:56:59;;;;;;;;;;;5.10;1.00;;;;;;5096184;28;20327;-90
2022/01/19 09:59:34;;;;;;;;;;;5.10;1.00;;;;;;5097467;28;20027;-91
2022/01/19 10:02:03;;;;;;;;;;;5.20;1.00;;;;;;5096613;28;19962;-91
2022/01/19 10:04:31;;;;;;;;;;;5.20;1.00;;;;;;5097256;28;20015;-90
2022/01/19 10:07:14;;;;;;;;;;;5.30;1.00;;;;;;5096778;28;19968;-91
2022/01/19 10:09:52;;;;;;;;;;;5.30;1.00;;;;;;5097911;28;20048;-92
2022/01/19 10:18:26;;;;;;;;;;;5.50;1.00;;;;;;5038756;28;20495;-90
2022/01/19 10:21:06;;;;;;;;;;;5.50;1.00;;;;;;5037708;28;20318;-91
2022/01/19 10:23:36;;;;;;;;;;;5.60;1.00;;;;;;5042415;28;19994;-93
2022/01/19 10:26:04;;;;;;;16.37;8.80;;;5.70;1.00;;;;;;5051858;28;19966;-89
2022/01/19 10:28:32;;;;;;;18.53;8.23;;;5.80;1.00;;;;;;5098426;28;20646;-90
2022/01/19 10:31:18;;;;;;;17.47;8.63;;;5.90;1.00;;;;;;5097599;28;20195;-90
2022/01/19 10:33:45;;;;;;;18.40;9.50;;;6.10;1.00;;;;;;5101458;28;20200;-92
2022/01/19 10:36:18;;;;;;;19.70;10.10;;;6.20;1.00;;;;;;5102207;28;20188;-92
2022/01/19 10:39:01;;;;;;;16.30;9.17;;;6.20;1.00;;;;;;5108047;28;20230;-91
2022/01/19 10:41:40;;;;;;;16.80;9.23;;;6.20;1.00;;;;;;5108471;28;20223;-94
2022/01/19 10:44:07;;;;;;;19.40;9.50;;;6.20;1.00;;;;;;5112120;28;20193;-89
2022/01/19 10:46:35;;;;;;;17.40;9.27;;;6.40;1.00;;;;;;5109692;28;20268;-91
2022/01/19 10:49:05;;;;;;;21.93;11.70;;;6.60;1.00;;;;;;5109422;28;20584;-90
2022/01/19 10:51:48;;;;;;;18.00;10.00;;;6.90;1.00;;;;;;5108277;28;20197;-91
2022/01/19 10:54:19;;;;;;;16.60;9.27;;;7.00;99.90;;;;;;5106338;28;20239;-91
2022/01/19 10:57:15;;;;;;;23.03;10.50;;;7.00;99.90;;;;;;5149350;22;20225;-95
2022/01/19 10:59:45;;;;;;;18.57;8.93;;;7.00;99.90;;;;;;5051457;28;20218;-91
2022/01/19 11:02:41;;;;;;;17.37;9.00;;;6.90;99.90;;;;;;5052272;28;20223;-91
2022/01/19 11:05:09;;;;;;;24.93;12.63;;;6.80;99.90;;;;;;5048239;28;20198;-91
2022/01/19 11:07:49;;;;;;;20.50;8.50;;;6.90;99.90;;;;;;5068792;28;20213;-89
2022/01/19 11:10:22;;;;;;;18.77;9.00;;;6.90;99.90;;;;;;5072611;28;20200;-91
2022/01/19 11:12:55;;;;;;;21.33;10.00;;;7.00;99.90;;;;;;5049282;28;20200;-91
2022/01/19 11:15:22;;;;;;;18.07;9.80;;;7.10;99.90;;;;;;5046205;28;20218;-91
2022/01/19 11:17:56;;;;;;;19.77;9.90;;;7.10;99.90;;;;;;5072950;22;20200;-91
2022/01/19 11:20:26;;;;;;;20.63;9.00;;;7.20;99.90;;;;;;5050962;28;20228;-94
2022/01/19 11:26:09;;;;;;;15.80;8.90;;;7.20;99.90;;;;;;5047780;28;20232;-92
2022/01/19 11:28:49;;;;;;;23.70;11.83;;;7.20;99.90;;;;;;5049513;28;20216;-91
2022/01/19 11:31:51;;;;;;;19.50;9.50;;;7.20;99.90;;;;;;5048028;28;20192;-89
2022/01/19 11:34:45;;;;;;;14.10;8.13;;;7.20;99.90;;;;;;5068240;28;20208;-89
2022/01/19 11:37:13;;;;;;;17.17;9.60;;;7.20;99.90;;;;;;5061938;28;20267;-89
2022/01/19 11:40:00;;;;;;;15.47;8.37;;;7.10;99.90;;;;;;5068702;28;20199;-90
2022/01/19 11:42:37;;;;;;;15.33;8.97;;;7.10;99.90;;;;;;5070645;28;20254;-91
2022/01/19 11:45:09;;;;;;;18.87;9.83;;;7.10;99.90;;;;;;5066790;28;20198;-92
2022/01/19 11:47:43;;;;;;;21.30;11.47;;;7.10;99.90;;;;;;5069023;28;20183;-90
2022/01/19 11:50:29;;;;;;;19.03;10.00;;;7.10;99.90;;;;;;5069562;28;20182;-90
2022/01/19 11:53:10;;;;;;;17.07;10.03;;;7.10;99.90;;;;;;5068513;28;20281;-93
2022/01/19 11:56:09;;;;;;;20.63;11.00;;;7.10;99.90;;;;;;5064463;28;20180;-91
2022/01/19 11:58:41;;;;;;;20.40;11.67;;;7.10;99.90;;;;;;5047956;28;20186;-91
2022/01/19 12:01:22;;;;;;;23.80;11.93;;;7.00;99.90;;;;;;5047818;28;20219;-93
2022/01/19 12:04:01;;;;;;;21.63;11.60;;;7.00;99.90;;;;;;5053435;28;20194;-89
2022/01/19 12:06:39;;;;;;;21.00;11.53;;;7.00;99.90;;;;;;5048849;28;20192;-90
2022/01/19 12:09:15;;;;;;;23.80;12.33;;;7.00;99.90;;;;;;5049051;28;20201;-92
2022/01/19 12:11:50;;;;;;;19.70;11.20;;;7.00;99.90;;;;;;5048904;28;20201;-91
2022/01/19 12:14:36;;;;;;;23.97;12.33;;;7.00;99.90;;;;;;5058497;28;20258;-91
2022/01/19 12:17:08;;;;;;;20.30;10.70;;;6.90;99.90;;;;;;5071625;28;20207;-90
2022/01/19 12:19:41;;;;;;;20.00;11.00;;;7.00;99.90;;;;;;5069127;28;20268;-91
2022/01/19 12:22:28;;;;;;;19.80;10.43;;;7.00;99.90;;;;;;5067659;28;20182;-92
2022/01/19 12:25:06;;;;;;;17.57;9.57;;;7.00;99.90;;;;;;5064141;28;20540;-91
2022/01/19 12:27:42;;;;;;;18.10;9.67;;;7.00;99.90;;;;;;5064281;28;20203;-91
2022/01/19 12:30:19;;;;;;;17.37;11.03;;;7.00;99.90;;;;;;5063158;28;20171;-87
2022/01/19 12:32:49;;;;;;;24.03;14.20;;;7.00;99.90;;;;;;5059345;28;20198;-89
2022/01/19 12:35:24;;;;;;;25.63;13.90;;;7.00;99.90;;;;;;5044462;28;20254;-90
2022/01/19 12:37:56;;;;;;;18.57;11.20;;;7.00;99.90;;;;;;5045742;28;20166;-91
2022/01/19 12:40:46;;;;;;;18.77;11.60;;;7.00;99.90;;;;;;5061258;28;20265;-89
2022/01/19 12:43:28;;;;;;;20.57;11.17;;;6.90;99.90;;;;;;5045650;28;20251;-90
2022/01/19 12:46:00;;;;;;;19.10;10.80;;;6.90;99.90;;;;;;5043596;28;20210;-90
2022/01/19 12:48:52;;;;;;;22.20;12.33;;;6.80;99.90;;;;;;5055381;28;20187;-89
2022/01/19 12:51:41;;;;;;;21.97;11.23;;;6.80;99.90;;;;;;5051887;28;20202;-90
2022/01/19 12:54:29;;;;;;;18.37;12.07;;;6.70;99.90;;;;;;5048974;28;20183;-89
2022/01/19 12:57:02;;;;;;;17.50;11.07;;;6.70;99.90;;;;;;5043194;28;20189;-89
2022/01/19 12:59:33;;;;;;;17.47;11.07;;;6.70;99.90;;;;;;5044125;28;20187;-89
2022/01/19 13:02:15;;;;;;;26.33;13.77;;;6.60;99.90;;;;;;5044618;28;20210;-87
2022/01/19 13:04:45;;;;;;;18.83;12.17;;;6.60;99.90;;;;;;5048856;28;20185;-89
2022/01/19 13:07:16;;;;;;;17.10;10.80;;;6.60;99.90;;;;;;5049752;28;20218;-89
2022/01/19 13:10:04;;;;;;;18.53;11.53;;;6.60;99.90;;;;;;5061609;28;20194;-90
2022/01/19 13:12:43;;;;;;;17.47;11.33;;;6.50;99.90;;;;;;5064924;28;20194;-89
2022/01/19 13:15:10;;;;;;;17.23;10.60;;;6.50;99.90;;;;;;5064849;28;20606;-88
2022/01/19 13:17:41;;;;;;;22.47;11.50;;;6.40;99.90;;;;;;5062986;28;20190;-88
2022/01/19 13:20:19;;;;;;;22.03;13.73;;;6.30;99.90;;;;;;5055483;28;20210;-90
2022/01/19 13:22:49;;;;;;;32.90;19.50;;;6.30;99.90;;;;;;5044355;28;20175;-89
2022/01/19 13:25:30;;;;;;;26.53;14.20;;;6.20;99.90;;;;;;5043603;28;20197;-89
2022/01/19 13:27:59;;;;;;;35.87;17.27;;;6.20;99.90;;;;;;5047079;28;20227;-91
2022/01/19 13:30:30;;;;;;;30.03;14.60;;;6.20;99.90;;;;;;5042697;28;20185;-92
2022/01/19 13:32:57;;;;;;;18.40;10.03;;;6.20;99.90;;;;;;5056588;28;20212;-89
2022/01/19 13:35:27;;;;;;;17.27;11.83;;;6.20;99.90;;;;;;5056039;28;20275;-88
2022/01/19 13:38:09;;;;;;;24.43;16.20;;;6.20;99.90;;;;;;5048274;28;20199;-91
2022/01/19 13:40:45;;;;;;;40.57;25.90;;;6.10;99.90;;;;;;5043490;28;20213;-89
2022/01/19 13:43:18;;;;;;;22.00;12.37;;;6.10;99.90;;;;;;5057421;28;20189;-90
2022/01/19 13:46:01;;;;;;;27.67;16.33;;;6.00;99.90;;;;;;5066100;28;20197;-91
2022/01/19 13:48:34;;;;;;;31.77;18.97;;;6.00;99.90;;;;;;5063468;28;20246;-91
2022/01/19 13:51:14;;;;;;;24.93;16.17;;;5.90;99.90;;;;;;5050832;28;20169;-91
2022/01/19 13:53:51;;;;;;;25.37;14.97;;;5.90;99.90;;;;;;5041316;28;20198;-89
2022/01/19 13:56:27;;;;;;;25.70;14.27;;;5.90;99.90;;;;;;5045370;28;20189;-90
2022/01/19 13:58:59;;;;;;;22.53;14.00;;;5.80;99.90;;;;;;5047066;28;20194;-91
2022/01/19 14:01:35;;;;;;;38.70;20.97;;;5.80;99.90;;;;;;5059953;28;20202;-89
2022/01/19 14:04:08;;;;;;;41.23;21.47;;;5.80;99.90;;;;;;5068434;28;20219;-89
2022/01/19 14:06:41;;;;;;;27.07;15.03;;;5.80;99.90;;;;;;5068270;28;20255;-90
2022/01/19 14:09:18;;;;;;;22.87;14.63;;;5.80;99.90;;;;;;5066674;28;20215;-90
2022/01/19 14:11:58;;;;;;;26.13;14.87;;;5.70;99.90;;;;;;5066849;28;20200;-88
2022/01/19 14:14:36;;;;;;;36.80;18.57;;;5.70;99.90;;;;;;5067340;28;20181;-90
2022/01/19 14:17:06;;;;;;;40.03;19.97;;;5.70;99.90;;;;;;5070278;28;20228;-90
2022/01/19 14:19:34;;;;;;;41.60;19.23;;;5.60;99.90;;;;;;5071575;28;20233;-91
2022/01/19 14:22:22;;;;;;;22.47;12.93;;;5.60;99.90;;;;;;5068984;28;20227;-91
2022/01/19 14:25:10;;;;;;;29.77;17.33;;;5.50;99.90;;;;;;5067284;28;20200;-92
2022/01/19 14:27:54;;;;;;;35.50;20.47;;;5.50;99.90;;;;;;5066517;28;20196;-90
2022/01/19 14:30:28;;;;;;;35.20;20.73;;;5.40;99.90;;;;;;5068950;28;20216;-92
2022/01/19 14:32:56;;;;;;;27.83;16.50;;;5.40;99.90;;;;;;5052727;28;20207;-91
2022/01/19 14:35:34;;;;;;;70.17;33.97;;;5.40;99.90;;;;;;5067867;28;20193;-89
2022/01/19 14:38:23;;;;;;;76.60;41.97;;;5.30;99.90;;;;;;5069386;28;20192;-91
2022/01/19 14:41:06;;;;;;;90.57;48.50;;;5.20;99.90;;;;;;5064797;28;20223;-92
2022/01/19 14:44:00;;;;;;;66.73;36.87;;;5.20;99.90;;;;;;5050044;28;20209;-90
2022/01/19 14:46:42;;;;;;;76.07;35.33;;;5.10;99.90;;;;;;5050044;28;20204;-89
2022/01/19 14:49:10;;;;;;;66.73;37.80;;;5.10;99.90;;;;;;5048877;28;20220;-92
2022/01/19 14:51:51;;;;;;;99.17;47.13;;;5.00;99.90;;;;;;5047956;28;20205;-92
2022/01/19 14:54:23;;;;;;;105.00;50.47;;;5.00;99.90;;;;;;5054471;28;20228;-91
2022/01/19 14:56:50;;;;;;;79.80;39.83;;;4.90;99.90;;;;;;5054459;28;20198;-90
2022/01/19 14:59:42;;;;;;;116.63;50.13;;;4.80;99.90;;;;;;5047006;28;20204;-89
2022/01/19 15:02:10;;;;;;;76.70;35.70;;;4.80;99.90;;;;;;5054548;28;20223;-90
2022/01/19 15:08:49;;;;;;;71.37;32.73;;;4.60;99.90;;;;;;5014600;28;20193;-92
2022/01/19 15:11:18;;;;;;;60.57;30.67;;;4.60;99.90;;;;;;5019377;28;20215;-93
2022/01/19 15:13:45;;;;;;;61.67;31.67;;;4.50;99.90;;;;;;4999798;28;20281;-88
2022/01/19 15:16:13;;;;;;;69.33;37.53;;;4.40;99.90;;;;;;4995471;28;20202;-88
2022/01/19 15:18:40;;;;;;;56.37;30.13;;;4.40;99.90;;;;;;5022844;28;20285;-91
2022/01/19 15:21:07;;;;;;;65.07;33.20;;;4.30;99.90;;;;;;5039483;28;20217;-89
2022/01/19 15:23:36;;;;;;;54.83;28.13;;;4.20;99.90;;;;;;5047590;28;20184;-87
2022/01/19 15:26:04;;;;;;;55.50;27.77;;;4.20;99.90;;;;;;5060972;28;20200;-92
2022/01/19 15:28:31;;;;;;;43.77;21.27;;;4.20;99.90;;;;;;5057181;28;20203;-89
2022/01/19 15:30:58;;;;;;;38.40;19.63;;;4.10;99.90;;;;;;5062233;28;20206;-89
2022/01/19 15:33:27;;;;;;;35.80;18.13;;;4.10;99.90;;;;;;5061560;28;20295;-88
2022/01/19 15:35:55;;;;;;;40.97;17.17;;;4.00;99.90;;;;;;5051755;28;20635;-89
2022/01/19 15:38:22;;;;;;;43.03;18.23;;;4.00;99.90;;;;;;5057893;28;20200;-90
2022/01/19 15:40:50;;;;;;;40.67;18.67;;;4.00;1.00;;;;;;5040481;28;20209;-89
2022/01/19 15:43:18;;;;;;;49.10;21.97;;;4.00;1.00;;;;;;5037333;28;20205;-89
2022/01/19 15:45:46;;;;;;;57.13;25.77;;;4.00;1.00;;;;;;5039420;28;20662;-90
2022/01/19 15:48:16;;;;;;;99.00;40.63;;;4.00;1.00;;;;;;5037518;28;20205;-89
2022/01/19 15:50:46;;;;;;;60.07;29.20;;;4.10;1.00;;;;;;5039451;28;20258;-90
2022/01/19 15:53:13;;;;;;;30.43;17.93;;;4.00;1.00;;;;;;5037905;28;20212;-89
2022/01/19 15:55:41;;;;;;;20.40;11.80;;;4.10;1.00;;;;;;5038915;28;20195;-89
2022/01/19 15:58:08;;;;;;;21.90;11.43;;;4.10;1.00;;;;;;5038017;28;20197;-88
2022/01/19 16:00:52;;;;;;;16.10;9.23;;;4.20;1.00;;;;;;5049139;28;20600;-89
2022/01/19 16:03:20;;;;;;;17.40;10.70;;;4.20;1.00;;;;;;5056887;28;20195;-91
2022/01/19 16:05:50;;;;;;;16.60;11.07;;;4.20;1.00;;;;;;5056824;28;20668;-91
2022/01/19 16:08:17;;;;;;;16.20;10.97;;;4.20;1.00;;;;;;5060547;28;20205;-88
2022/01/19 16:11:03;;;;;;;20.37;11.73;;;4.20;1.00;;;;;;5060145;28;20201;-88
2022/01/19 16:13:30;;;;;;;16.40;11.43;;;4.10;1.00;;;;;;5059605;28;20197;-89
2022/01/19 16:15:57;;;;;;;20.60;13.23;;;4.00;1.00;;;;;;5058436;28;20208;-90